Time;durP1;ratioP1;P1;durP2;ratioP2;P2;SDS_P1;SDS_P2;PMS_P1;PMS_P2;Temp;Humidity;BMP_temperature;BMP_pressure;BME280_temperature;BME280_humidity;BME280_pressure;Samples;Min_cycle;Max_cycle;Signal;HPM_P1;HPM_P2
2023/01/20 00:02:15;;;;;;;2.10;1.90;;;0.10;98.20;;;;;;5036312;28;20483;-72
2023/01/20 00:04:42;;;;;;;1.70;1.60;;;0.10;98.20;;;;;;5060026;28;20481;-73
2023/01/20 00:07:08;;;;;;;1.70;1.60;;;0.10;98.20;;;;;;5041243;28;20471;-75
2023/01/20 00:09:35;;;;;;;1.70;1.60;;;0.10;98.20;;;;;;5057910;28;20468;-72
2023/01/20 00:12:02;;;;;;;1.70;1.60;;;0.20;98.20;;;;;;5053246;28;20481;-73
2023/01/20 00:14:29;;;;;;;1.80;1.70;;;0.20;98.20;;;;;;5066959;28;20478;-75
2023/01/20 00:16:56;;;;;;;1.70;1.60;;;0.20;98.20;;;;;;5036460;28;20513;-74
2023/01/20 00:19:24;;;;;;;1.70;1.60;;;0.30;98.20;;;;;;5052287;28;21024;-74
2023/01/20 00:21:51;;;;;;;1.70;1.60;;;0.30;98.20;;;;;;5043359;28;20517;-73
2023/01/20 00:24:17;;;;;;;1.70;1.60;;;0.40;98.20;;;;;;5054518;28;20838;-72
2023/01/20 00:26:44;;;;;;;1.70;1.60;;;0.40;98.20;;;;;;5046547;28;20517;-74
2023/01/20 00:29:11;;;;;;;1.70;1.60;;;0.50;98.20;;;;;;5046766;28;20486;-72
2023/01/20 00:31:38;;;;;;;1.70;1.60;;;0.50;98.20;;;;;;5048982;28;20493;-73
2023/01/20 00:34:05;;;;;;;1.70;1.60;;;0.60;98.20;;;;;;5045430;28;20481;-73
2023/01/20 00:36:34;;;;;;;1.70;1.60;;;0.60;98.20;;;;;;5042987;28;20483;-73
2023/01/20 00:39:02;;;;;;;1.70;1.60;;;0.60;98.20;;;;;;5041369;28;20481;-73
2023/01/20 00:41:29;;;;;;;1.70;1.60;;;0.70;98.20;;;;;;5053968;28;20535;-73
2023/01/20 00:43:55;;;;;;;1.70;1.60;;;0.70;98.20;;;;;;5064775;28;20485;-74
2023/01/20 00:46:22;;;;;;;1.80;1.70;;;0.70;98.20;;;;;;5049663;28;21081;-73
2023/01/20 00:48:49;;;;;;;1.70;1.50;;;0.80;98.20;;;;;;5049793;28;20485;-74
2023/01/20 00:51:16;;;;;;;1.80;1.70;;;0.80;98.20;;;;;;5046276;28;20471;-73
2023/01/20 00:53:44;;;;;;;1.90;1.80;;;0.80;98.20;;;;;;5040227;28;20493;-73
2023/01/20 00:56:11;;;;;;;1.90;1.80;;;0.80;98.20;;;;;;5049119;28;20482;-74
2023/01/20 00:58:37;;;;;;;1.80;1.70;;;0.90;98.20;;;;;;5048559;28;20445;-74
2023/01/20 01:01:04;;;;;;;1.70;1.50;;;0.90;98.20;;;;;;5049429;28;20973;-73
2023/01/20 01:03:31;;;;;;;1.70;1.50;;;0.90;98.20;;;;;;5042497;28;21151;-73
2023/01/20 01:06:07;;;;;;;1.70;1.50;;;0.90;98.20;;;;;;5047180;28;20469;-73
2023/01/20 01:08:34;;;;;;;1.70;1.60;;;0.90;98.20;;;;;;5042207;28;21028;-72
2023/01/20 01:11:02;;;;;;;1.90;1.77;;;0.90;98.20;;;;;;5053363;28;20521;-74
2023/01/20 01:13:30;;;;;;;1.70;1.60;;;0.90;98.20;;;;;;5066354;28;20480;-72
2023/01/20 01:15:56;;;;;;;1.70;1.60;;;0.90;98.20;;;;;;5053987;28;20461;-73
2023/01/20 01:18:23;;;;;;;1.90;1.80;;;1.00;98.20;;;;;;5038843;28;20464;-73
2023/01/20 01:20:50;;;;;;;1.87;1.77;;;1.00;98.20;;;;;;5052261;28;20464;-74
2023/01/20 01:23:17;;;;;;;1.70;1.50;;;1.00;98.20;;;;;;5065228;28;20869;-74
2023/01/20 01:25:43;;;;;;;1.80;1.70;;;1.00;98.20;;;;;;5058436;28;20453;-73
2023/01/20 01:28:11;;;;;;;1.70;1.60;;;1.10;98.20;;;;;;5050579;28;20487;-74
2023/01/20 01:30:38;;;;;;;1.70;1.50;;;1.10;98.20;;;;;;5066542;28;20816;-73
2023/01/20 01:33:05;;;;;;;1.70;1.60;;;1.10;98.20;;;;;;5022149;28;20482;-74
2023/01/20 01:35:32;;;;;;;1.97;1.80;;;1.20;98.20;;;;;;5066650;28;20875;-74
2023/01/20 01:37:58;;;;;;;1.70;1.60;;;1.20;98.20;;;;;;5025424;28;20488;-74
2023/01/20 01:40:25;;;;;;;1.70;1.60;;;1.20;98.20;;;;;;5062880;28;20461;-74
2023/01/20 01:42:52;;;;;;;1.70;1.60;;;1.30;98.20;;;;;;5052360;28;20492;-74
2023/01/20 01:45:24;;;;;;;1.70;1.60;;;1.30;98.20;;;;;;5063304;28;20458;-73
2023/01/20 01:47:57;;;;;;;1.70;1.60;;;1.30;98.20;;;;;;5026507;28;20499;-74
2023/01/20 01:50:27;;;;;;;1.70;1.60;;;1.30;98.20;;;;;;5065273;28;20488;-73
2023/01/20 01:52:56;;;;;;;1.70;1.60;;;1.30;98.20;;;;;;5032991;28;20485;-73
2023/01/20 01:55:25;;;;;;;1.70;1.60;;;1.40;98.20;;;;;;5065564;28;20980;-72
2023/01/20 01:57:53;;;;;;;1.70;1.60;;;1.40;98.20;;;;;;5026245;28;20479;-74
2023/01/20 02:00:21;;;;;;;1.80;1.70;;;1.40;98.20;;;;;;5064437;28;20465;-74
2023/01/20 02:02:49;;;;;;;1.63;1.50;;;1.40;98.20;;;;;;5028240;28;20486;-73
2023/01/20 02:05:17;;;;;;;1.70;1.50;;;1.40;98.20;;;;;;5067920;28;20859;-75
2023/01/20 02:07:47;;;;;;;1.70;1.60;;;1.40;98.20;;;;;;5055338;28;20485;-74
2023/01/20 02:10:14;;;;;;;1.80;1.70;;;1.50;98.20;;;;;;5064953;28;20457;-74
2023/01/20 02:12:43;;;;;;;1.70;1.60;;;1.50;98.20;;;;;;5057378;28;20488;-74
2023/01/20 02:15:11;;;;;;;1.70;1.50;;;1.50;98.20;;;;;;5064830;28;20578;-74
2023/01/20 02:17:47;;;;;;;1.70;1.50;;;1.50;98.20;;;;;;5028149;28;20482;-74
2023/01/20 02:21:02;;;;;;;1.67;1.50;;;1.50;98.20;;;;;;5065805;28;20464;-76
2023/01/20 02:23:53;;;;;;;1.70;1.50;;;1.50;98.20;;;;;;5036588;28;20477;-73
2023/01/20 02:26:42;;;;;;;1.67;1.50;;;1.50;98.20;;;;;;5041661;28;20695;-73
2023/01/20 02:29:42;;;;;;;1.70;1.60;;;1.50;98.20;;;;;;5055302;28;20516;-76
2023/01/20 02:32:19;;;;;;;1.70;1.60;;;1.50;98.20;;;;;;5018808;28;21016;-77
2023/01/20 02:34:53;;;;;;;1.70;1.60;;;1.50;98.20;;;;;;5059416;28;20469;-72
2023/01/20 02:37:24;;;;;;;1.70;1.60;;;1.50;98.20;;;;;;5034613;28;20479;-72
2023/01/20 02:40:01;;;;;;;1.70;1.60;;;1.50;98.20;;;;;;5060961;28;20867;-72
2023/01/20 02:42:36;;;;;;;2.90;2.67;;;1.60;98.20;;;;;;5055385;28;20485;-71
2023/01/20 02:45:08;;;;;;;1.73;1.63;;;1.60;98.20;;;;;;5069372;28;20477;-71
2023/01/20 02:47:43;;;;;;;1.70;1.60;;;1.60;98.20;;;;;;5033149;28;20489;-71
2023/01/20 02:50:13;;;;;;;1.70;1.60;;;1.60;98.20;;;;;;5053251;28;20781;-71
2023/01/20 02:52:44;;;;;;;1.70;1.60;;;1.60;98.20;;;;;;5039806;28;20482;-71
2023/01/20 02:55:17;;;;;;;1.70;1.50;;;1.60;98.20;;;;;;5064980;28;20481;-70
2023/01/20 02:57:48;;;;;;;1.70;1.60;;;1.60;98.20;;;;;;5032372;28;20589;-72
2023/01/20 03:00:20;;;;;;;1.67;1.50;;;1.60;98.20;;;;;;5065714;28;20532;-71
2023/01/20 03:02:52;;;;;;;1.70;1.60;;;1.60;98.20;;;;;;5055685;28;20492;-71
2023/01/20 03:05:22;;;;;;;1.73;1.63;;;1.70;98.20;;;;;;5061968;28;20457;-71
2023/01/20 03:07:52;;;;;;;1.70;1.60;;;1.70;98.20;;;;;;5033780;28;20482;-71
2023/01/20 03:10:22;;;;;;;1.70;1.57;;;1.70;98.20;;;;;;5064345;28;20485;-71
2023/01/20 03:12:53;;;;;;;1.70;1.57;;;1.70;98.20;;;;;;5055957;28;21091;-72
2023/01/20 03:15:24;;;;;;;1.67;1.50;;;1.70;98.20;;;;;;5067554;28;20465;-71
2023/01/20 03:17:52;;;;;;;1.70;1.60;;;1.70;98.20;;;;;;5051779;28;20488;-72
2023/01/20 03:20:19;;;;;;;1.70;1.60;;;1.70;98.20;;;;;;5065767;28;20454;-71
2023/01/20 03:22:46;;;;;;;3.23;3.00;;;1.70;98.20;;;;;;5033197;28;20478;-71
2023/01/20 03:25:14;;;;;;;1.97;1.77;;;1.70;98.20;;;;;;5067844;28;20849;-72
2023/01/20 03:27:42;;;;;;;1.90;1.80;;;1.70;98.20;;;;;;5025037;28;20907;-71
2023/01/20 03:30:13;;;;;;;1.70;1.60;;;1.80;98.20;;;;;;5065449;28;20517;-72
2023/01/20 03:32:42;;;;;;;1.67;1.50;;;1.80;98.20;;;;;;5034849;28;20877;-71
2023/01/20 03:35:11;;;;;;;1.70;1.60;;;1.80;98.20;;;;;;5066981;28;20481;-71
2023/01/20 03:37:37;;;;;;;1.70;1.50;;;1.80;98.20;;;;;;5038645;28;20485;-72
2023/01/20 03:40:06;;;;;;;1.70;1.60;;;1.80;98.20;;;;;;5061430;28;20462;-72
2023/01/20 03:42:39;;;;;;;1.63;1.50;;;1.80;98.20;;;;;;5054997;28;20557;-72
2023/01/20 03:45:14;;;;;;;1.67;1.50;;;1.80;98.20;;;;;;5064444;28;21014;-72
2023/01/20 03:47:50;;;;;;;1.70;1.50;;;1.90;98.20;;;;;;5022397;28;20475;-72
2023/01/20 03:50:30;;;;;;;1.60;1.50;;;1.80;98.20;;;;;;5063279;28;20485;-72
2023/01/20 03:53:04;;;;;;;1.60;1.50;;;1.90;98.20;;;;;;5036770;28;21009;-73
2023/01/20 03:55:36;;;;;;;1.63;1.50;;;1.80;98.20;;;;;;5067150;28;20989;-73
2023/01/20 03:58:06;;;;;;;1.70;1.60;;;1.90;98.20;;;;;;5030424;28;21046;-72
2023/01/20 04:00:35;;;;;;;1.60;1.50;;;1.90;98.20;;;;;;5067118;28;20977;-72
2023/01/20 04:03:08;;;;;;;1.67;1.50;;;1.90;98.20;;;;;;5036044;28;20482;-72
2023/01/20 04:05:38;;;;;;;1.70;1.60;;;1.80;98.20;;;;;;5063195;28;20457;-72
2023/01/20 04:08:08;;;;;;;1.70;1.53;;;1.80;98.20;;;;;;5030810;28;20474;-72
2023/01/20 04:10:38;;;;;;;1.70;1.53;;;1.80;98.20;;;;;;5065610;28;20493;-72
2023/01/20 04:13:05;;;;;;;1.70;1.50;;;1.80;98.20;;;;;;5035765;28;20485;-72
2023/01/20 04:15:34;;;;;;;1.70;1.50;;;1.80;98.20;;;;;;5063619;28;20462;-72
2023/01/20 04:18:11;;;;;;;1.67;1.50;;;1.80;98.20;;;;;;5030364;28;20885;-72
2023/01/20 04:20:40;;;;;;;1.70;1.60;;;1.80;98.20;;;;;;5060917;28;20453;-72
2023/01/20 04:23:08;;;;;;;1.63;1.50;;;1.80;98.20;;;;;;5035872;28;20486;-72
2023/01/20 04:25:35;;;;;;;1.63;1.50;;;1.80;98.20;;;;;;5066480;28;20469;-72
2023/01/20 04:28:02;;;;;;;1.70;1.50;;;1.80;98.20;;;;;;5053552;28;20481;-72
2023/01/20 04:30:29;;;;;;;1.67;1.47;;;1.80;98.20;;;;;;5062785;28;21031;-71
2023/01/20 04:32:55;;;;;;;1.70;1.60;;;1.70;98.20;;;;;;5032914;28;21309;-73
2023/01/20 04:35:22;;;;;;;1.70;1.60;;;1.70;98.20;;;;;;5065742;28;20457;-72
2023/01/20 04:37:50;;;;;;;1.73;1.63;;;1.70;98.20;;;;;;5034795;28;20482;-72
2023/01/20 04:40:17;;;;;;;1.70;1.60;;;1.70;98.20;;;;;;5064191;28;20454;-72
2023/01/20 04:42:44;;;;;;;1.70;1.60;;;1.70;98.20;;;;;;5030137;28;20565;-72
2023/01/20 04:45:15;;;;;;;1.70;1.57;;;1.70;98.20;;;;;;5066815;28;20922;-72
2023/01/20 04:47:42;;;;;;;1.63;1.50;;;1.60;98.20;;;;;;5032514;28;20483;-72
2023/01/20 04:50:10;;;;;;;1.70;1.50;;;1.60;98.20;;;;;;5059711;28;20481;-71
2023/01/20 04:52:37;;;;;;;1.70;1.50;;;1.60;98.20;;;;;;5029762;28;20889;-72
2023/01/20 04:55:06;;;;;;;1.63;1.50;;;1.60;98.20;;;;;;5063338;28;20484;-71
2023/01/20 04:57:32;;;;;;;1.70;1.60;;;1.60;98.20;;;;;;5053786;28;20972;-71
2023/01/20 04:59:59;;;;;;;1.67;1.50;;;1.60;98.20;;;;;;5065006;28;20450;-71
2023/01/20 05:02:26;;;;;;;1.70;1.50;;;1.60;98.20;;;;;;5053910;28;20485;-71
2023/01/20 05:04:53;;;;;;;3.43;3.13;;;1.50;98.20;;;;;;5062282;28;20485;-72
2023/01/20 05:07:19;;;;;;;1.70;1.60;;;1.50;98.20;;;;;;5029330;28;20972;-71
2023/01/20 05:09:46;;;;;;;1.70;1.60;;;1.50;98.20;;;;;;5056450;28;20481;-71
2023/01/20 05:12:14;;;;;;;1.70;1.50;;;1.60;98.20;;;;;;5050097;28;20492;-72
2023/01/20 05:14:41;;;;;;;1.70;1.60;;;1.60;98.20;;;;;;5061873;28;21051;-71
2023/01/20 05:17:08;;;;;;;1.70;1.50;;;1.60;98.20;;;;;;5052433;28;20484;-71
2023/01/20 05:19:34;;;;;;;1.87;1.77;;;1.60;98.20;;;;;;5061101;28;20457;-72
2023/01/20 05:22:01;;;;;;;1.70;1.50;;;1.70;98.20;;;;;;5051454;28;20891;-71
2023/01/20 05:24:29;;;;;;;1.70;1.50;;;1.70;98.20;;;;;;5061234;28;20552;-72
2023/01/20 05:26:59;;;;;;;1.70;1.50;;;1.70;98.20;;;;;;5050234;28;20477;-72
2023/01/20 05:29:27;;;;;;;1.67;1.50;;;1.70;98.20;;;;;;5061340;28;20499;-72
2023/01/20 05:31:54;;;;;;;1.70;1.53;;;1.70;98.20;;;;;;5038524;28;20475;-72
2023/01/20 05:34:21;;;;;;;1.70;1.50;;;1.70;98.20;;;;;;5044962;28;20489;-72
2023/01/20 05:36:51;;;;;;;1.70;1.57;;;1.70;98.20;;;;;;5038747;28;20502;-71
2023/01/20 05:39:18;;;;;;;1.70;1.50;;;1.80;98.20;;;;;;5057750;28;21036;-71
2023/01/20 05:41:45;;;;;;;1.67;1.50;;;1.80;98.20;;;;;;5051136;28;20555;-72
2023/01/20 05:44:12;;;;;;;1.70;1.57;;;1.80;98.20;;;;;;5069255;28;21007;-72
2023/01/20 05:46:40;;;;;;;1.70;1.50;;;1.80;98.20;;;;;;5043794;28;21021;-72
2023/01/20 05:49:07;;;;;;;1.60;1.50;;;1.80;98.20;;;;;;5049797;28;20468;-72
2023/01/20 05:51:34;;;;;;;1.80;1.70;;;1.80;98.20;;;;;;5057563;28;20486;-72
2023/01/20 05:54:00;;;;;;;1.70;1.50;;;1.80;98.20;;;;;;5067960;28;20577;-72
2023/01/20 05:56:27;;;;;;;1.67;1.57;;;1.80;98.20;;;;;;5055311;28;20473;-71
2023/01/20 05:58:55;;;;;;;1.63;1.50;;;1.80;98.20;;;;;;5063188;28;21129;-72
2023/01/20 06:01:22;;;;;;;1.67;1.50;;;1.90;98.20;;;;;;5050534;28;20924;-71
2023/01/20 06:03:50;;;;;;;1.70;1.60;;;1.90;98.20;;;;;;5048290;28;20568;-71
2023/01/20 06:06:17;;;;;;;1.70;1.50;;;1.90;98.20;;;;;;5054606;28;20477;-72
2023/01/20 06:08:45;;;;;;;1.60;1.40;;;1.90;98.20;;;;;;5063174;28;20898;-72
2023/01/20 06:11:13;;;;;;;1.67;1.50;;;1.90;98.20;;;;;;5050565;28;20478;-72
2023/01/20 06:13:40;;;;;;;1.60;1.50;;;1.90;98.20;;;;;;5051669;28;20505;-72
2023/01/20 06:16:07;;;;;;;1.70;1.57;;;1.90;98.20;;;;;;5051976;28;20964;-71
2023/01/20 06:18:34;;;;;;;1.63;1.40;;;1.90;98.20;;;;;;5059704;28;20462;-73
2023/01/20 06:21:03;;;;;;;1.70;1.50;;;1.90;98.20;;;;;;5048068;28;20485;-72
2023/01/20 06:23:29;;;;;;;1.63;1.50;;;1.90;98.20;;;;;;5067189;28;20547;-72
2023/01/20 06:26:01;;;;;;;2.23;2.03;;;1.90;98.20;;;;;;5048831;28;20457;-72
2023/01/20 06:28:28;;;;;;;1.63;1.43;;;1.90;98.20;;;;;;5043571;28;20973;-72
2023/01/20 06:31:02;;;;;;;1.63;1.50;;;1.90;98.20;;;;;;5055636;28;20576;-72
2023/01/20 06:33:28;;;;;;;1.73;1.63;;;2.00;98.20;;;;;;5044978;28;20488;-73
2023/01/20 06:35:56;;;;;;;1.67;1.50;;;1.90;98.20;;;;;;5055487;28;20740;-72
2023/01/20 06:38:24;;;;;;;1.67;1.50;;;2.00;98.20;;;;;;5041428;28;20465;-72
2023/01/20 06:40:55;;;;;;;1.70;1.50;;;2.00;98.20;;;;;;5054355;28;20462;-72
2023/01/20 06:43:22;;;;;;;1.70;1.60;;;2.00;98.20;;;;;;5070553;28;20503;-73
2023/01/20 06:45:49;;;;;;;1.63;1.50;;;2.00;98.20;;;;;;5055514;28;20457;-73
2023/01/20 06:48:16;;;;;;;1.70;1.50;;;2.00;98.20;;;;;;5045998;28;20491;-73
2023/01/20 06:50:43;;;;;;;1.70;1.50;;;2.00;98.20;;;;;;5065450;28;20569;-73
2023/01/20 06:53:10;;;;;;;1.70;1.60;;;2.00;98.20;;;;;;5032211;28;20489;-73
2023/01/20 06:55:38;;;;;;;1.70;1.50;;;2.00;98.20;;;;;;5066216;28;20465;-73
2023/01/20 06:58:05;;;;;;;1.60;1.50;;;2.00;98.20;;;;;;5035354;28;20481;-74
2023/01/20 07:00:32;;;;;;;1.67;1.50;;;2.00;98.20;;;;;;5066016;28;20968;-75
2023/01/20 07:02:58;;;;;;;1.77;1.67;;;2.00;98.20;;;;;;5034795;28;20482;-72
2023/01/20 07:05:25;;;;;;;1.73;1.63;;;2.00;98.20;;;;;;5065764;28;20450;-72
2023/01/20 07:07:52;;;;;;;1.63;1.50;;;2.00;98.20;;;;;;5036770;28;20482;-73
2023/01/20 07:10:19;;;;;;;1.67;1.50;;;2.00;98.20;;;;;;5066819;28;20488;-72
2023/01/20 07:12:47;;;;;;;1.63;1.40;;;2.00;98.20;;;;;;5034429;28;21013;-71
2023/01/20 07:15:14;;;;;;;1.67;1.50;;;2.00;98.20;;;;;;5065547;28;20481;-72
2023/01/20 07:17:41;;;;;;;1.70;1.60;;;2.00;98.20;;;;;;5029573;28;20509;-72
2023/01/20 07:20:09;;;;;;;1.67;1.50;;;2.00;98.20;;;;;;5059072;28;20458;-74
2023/01/20 07:22:36;;;;;;;1.70;1.60;;;2.00;98.20;;;;;;5029916;28;21075;-73
2023/01/20 07:25:03;;;;;;;1.67;1.53;;;2.00;98.20;;;;;;5060248;28;20477;-74
2023/01/20 07:27:30;;;;;;;1.70;1.53;;;2.00;98.20;;;;;;5025125;28;20489;-75
2023/01/20 07:29:58;;;;;;;1.67;1.50;;;2.00;98.20;;;;;;5056798;28;20921;-75
2023/01/20 07:32:25;;;;;;;1.70;1.50;;;2.00;98.20;;;;;;5034806;28;20479;-73
2023/01/20 07:34:51;;;;;;;1.70;1.50;;;2.00;98.20;;;;;;5062572;28;20844;-74
2023/01/20 07:37:18;;;;;;;1.70;1.60;;;2.00;98.20;;;;;;5050876;28;20480;-73
2023/01/20 07:39:45;;;;;;;1.70;1.50;;;1.90;98.20;;;;;;5055994;28;21029;-73
2023/01/20 07:42:11;;;;;;;1.60;1.50;;;2.00;98.20;;;;;;5047515;28;20755;-74
2023/01/20 07:44:38;;;;;;;1.70;1.60;;;2.00;98.20;;;;;;5060705;28;20473;-73
2023/01/20 07:47:06;;;;;;;1.67;1.50;;;2.00;98.20;;;;;;5051449;28;20477;-73
2023/01/20 07:49:33;;;;;;;1.63;1.50;;;2.00;98.20;;;;;;5059322;28;20492;-74
2023/01/20 07:52:00;;;;;;;1.67;1.50;;;2.00;98.20;;;;;;5049870;28;20481;-72
2023/01/20 07:54:26;;;;;;;1.70;1.50;;;2.00;98.20;;;;;;5066178;28;20488;-74
2023/01/20 07:56:53;;;;;;;1.70;1.60;;;2.00;98.20;;;;;;5035382;28;20494;-74
2023/01/20 07:59:20;;;;;;;1.70;1.50;;;2.00;98.20;;;;;;5052447;28;20466;-73
2023/01/20 08:01:47;;;;;;;1.70;1.60;;;2.00;98.20;;;;;;5046412;28;20545;-74
2023/01/20 08:04:16;;;;;;;1.70;1.50;;;2.00;98.20;;;;;;5049473;28;20781;-74
2023/01/20 08:06:43;;;;;;;1.70;1.50;;;2.00;98.20;;;;;;5049848;28;20489;-74
2023/01/20 08:09:11;;;;;;;1.73;1.63;;;2.00;98.20;;;;;;5058864;28;20653;-73
2023/01/20 08:11:38;;;;;;;1.70;1.60;;;2.00;98.20;;;;;;5048601;28;20579;-74
2023/01/20 08:14:05;;;;;;;1.70;1.60;;;2.00;98.20;;;;;;5060997;28;20485;-73
2023/01/20 08:16:31;;;;;;;1.70;1.60;;;2.00;98.20;;;;;;5048096;28;20892;-73
2023/01/20 08:18:59;;;;;;;1.70;1.50;;;2.00;98.20;;;;;;5061253;28;20472;-73
2023/01/20 08:21:29;;;;;;;1.77;1.67;;;2.00;98.20;;;;;;5049047;28;20555;-72
2023/01/20 08:23:56;;;;;;;1.70;1.60;;;2.00;98.20;;;;;;5060992;28;21019;-72
2023/01/20 08:26:24;;;;;;;1.70;1.50;;;2.00;98.20;;;;;;5059544;28;20484;-72
2023/01/20 08:28:51;;;;;;;1.63;1.50;;;2.00;98.20;;;;;;5065650;28;20461;-74
2023/01/20 08:31:21;;;;;;;1.80;1.70;;;2.10;98.20;;;;;;5054665;28;20888;-72
2023/01/20 08:33:51;;;;;;;1.70;1.60;;;2.20;98.20;;;;;;5064191;28;20485;-73
2023/01/20 08:36:21;;;;;;;1.80;1.70;;;2.30;98.20;;;;;;5060856;28;20456;-73
2023/01/20 08:38:50;;;;;;;1.70;1.50;;;2.30;98.20;;;;;;5060635;28;20976;-72
2023/01/20 08:41:20;;;;;;;1.70;1.50;;;2.20;98.20;;;;;;5050079;28;21512;-72
2023/01/20 08:43:47;;;;;;;1.80;1.70;;;2.20;98.20;;;;;;5060779;28;20481;-75
2023/01/20 08:46:16;;;;;;;1.70;1.50;;;2.30;98.20;;;;;;5043108;28;20543;-75
2023/01/20 08:48:43;;;;;;;1.67;1.50;;;2.30;98.20;;;;;;5042653;28;20469;-74
2023/01/20 08:51:13;;;;;;;1.67;1.50;;;2.40;98.20;;;;;;5041238;28;20486;-75
2023/01/20 08:53:40;;;;;;;1.70;1.50;;;2.40;98.20;;;;;;5063225;28;20481;-74
2023/01/20 08:56:09;;;;;;;1.70;1.50;;;2.40;98.20;;;;;;5043718;28;20576;-75
2023/01/20 08:58:36;;;;;;;1.70;1.60;;;2.40;98.20;;;;;;5049061;28;20457;-74
2023/01/20 09:01:08;;;;;;;1.70;1.50;;;2.50;98.20;;;;;;5050869;28;20467;-75
2023/01/20 09:03:35;;;;;;;2.23;2.03;;;2.60;98.20;;;;;;5048585;28;20939;-74
2023/01/20 09:06:02;;;;;;;1.63;1.40;;;2.60;98.20;;;;;;5045598;28;20842;-75
2023/01/20 09:08:29;;;;;;;1.67;1.50;;;2.60;98.20;;;;;;5040722;28;20552;-74
2023/01/20 09:11:02;;;;;;;1.70;1.60;;;2.60;98.20;;;;;;5045440;28;20488;-74
2023/01/20 09:13:30;;;;;;;1.70;1.50;;;2.60;98.20;;;;;;5049937;28;20974;-74
2023/01/20 09:15:56;;;;;;;1.77;1.67;;;2.60;98.20;;;;;;5051697;28;20484;-72
2023/01/20 09:18:23;;;;;;;1.60;1.43;;;2.50;98.20;;;;;;5047904;28;20488;-75
2023/01/20 09:20:50;;;;;;;1.70;1.50;;;2.50;98.20;;;;;;5055104;28;20457;-75
2023/01/20 09:23:17;;;;;;;1.60;1.40;;;2.50;98.20;;;;;;5069183;28;20484;-73
2023/01/20 09:25:44;;;;;;;1.63;1.40;;;2.50;98.20;;;;;;5066936;28;20468;-74
2023/01/20 09:28:12;;;;;;;1.70;1.50;;;2.60;98.20;;;;;;5024159;28;20474;-73
2023/01/20 09:30:41;;;;;;;4.63;3.30;;;2.50;98.20;;;;;;5067258;28;20485;-73
2023/01/20 09:33:09;;;;;;;1.63;1.40;;;2.50;98.20;;;;;;5054710;28;20490;-74
2023/01/20 09:35:36;;;;;;;1.67;1.50;;;2.60;98.20;;;;;;5069820;28;20453;-74
2023/01/20 09:43:54;;;;;;;1.60;1.37;;;2.50;98.20;;;;;;5040183;28;20849;-74
2023/01/20 09:46:32;;;;;;;1.60;1.40;;;2.50;98.20;;;;;;5048104;28;20478;-75
2023/01/20 09:54:59;;;;;;;1.70;1.50;;;2.70;98.20;;;;;;5057756;28;20457;-73
2023/01/20 09:57:31;;;;;;;4.60;4.07;;;2.70;98.20;;;;;;5051425;28;20985;-75
2023/01/20 10:00:05;;;;;;;1.63;1.40;;;2.70;98.20;;;;;;5060853;28;20457;-75
2023/01/20 10:02:36;;;;;;;1.70;1.60;;;2.70;98.20;;;;;;5038381;28;20885;-75
2023/01/20 10:05:11;;;;;;;1.70;1.50;;;2.70;98.20;;;;;;5059955;28;20842;-73
2023/01/20 10:07:45;;;;;;;1.63;1.40;;;2.70;98.20;;;;;;5024860;28;21006;-76
2023/01/20 10:10:16;;;;;;;1.70;1.60;;;2.70;98.20;;;;;;5053032;28;20553;-75
2023/01/20 10:12:47;;;;;;;1.90;1.80;;;2.70;98.20;;;;;;5032609;28;21039;-75
2023/01/20 10:15:18;;;;;;;1.63;1.40;;;2.70;98.20;;;;;;5061896;28;20474;-75
2023/01/20 10:17:52;;;;;;;1.67;1.40;;;2.70;98.20;;;;;;5053021;28;20485;-75
2023/01/20 10:20:28;;;;;;;1.63;1.40;;;2.80;98.20;;;;;;5066151;28;20453;-75
2023/01/20 10:23:00;;;;;;;1.70;1.60;;;2.80;98.20;;;;;;5035469;28;20489;-71
2023/01/20 10:25:31;;;;;;;1.67;1.50;;;2.90;98.20;;;;;;5065917;28;20454;-73
2023/01/20 10:28:04;;;;;;;1.70;1.50;;;3.00;98.20;;;;;;5052422;28;20481;-76
2023/01/20 10:30:34;;;;;;;1.70;1.50;;;3.10;98.20;;;;;;5068765;28;20787;-73
2023/01/20 10:33:06;;;;;;;5.50;5.10;;;3.10;98.20;;;;;;5028233;28;21022;-74
2023/01/20 10:35:37;;;;;;;1.67;1.40;;;3.20;98.20;;;;;;5068876;28;20458;-76
2023/01/20 10:38:07;;;;;;;1.70;1.50;;;3.30;98.20;;;;;;5031316;28;20844;-75
2023/01/20 10:40:40;;;;;;;1.70;1.40;;;3.30;98.20;;;;;;5054525;28;20458;-75
2023/01/20 10:43:11;;;;;;;1.70;1.50;;;3.40;98.20;;;;;;5052607;28;20539;-75
2023/01/20 10:45:50;;;;;;;1.70;1.40;;;3.30;98.20;;;;;;5065865;28;20457;-75
2023/01/20 10:48:33;;;;;;;1.70;1.47;;;3.30;98.20;;;;;;5032592;28;20565;-74
2023/01/20 10:51:05;;;;;;;1.60;1.30;;;3.40;98.20;;;;;;5048319;28;20493;-76
2023/01/20 10:53:46;;;;;;;1.70;1.40;;;3.40;98.20;;;;;;5061945;28;20482;-75
2023/01/20 10:56:28;;;;;;;1.67;1.40;;;3.30;98.20;;;;;;5042669;28;20490;-75
2023/01/20 10:58:56;;;;;;;1.67;1.40;;;3.30;98.20;;;;;;5052726;28;20458;-75
2023/01/20 11:01:23;;;;;;;1.60;1.30;;;3.20;98.20;;;;;;5047865;28;20487;-75
2023/01/20 11:03:52;;;;;;;1.70;1.40;;;3.20;98.20;;;;;;5052054;28;20480;-75
2023/01/20 11:06:20;;;;;;;1.70;1.50;;;3.20;98.20;;;;;;5048516;28;20495;-74
2023/01/20 11:08:48;;;;;;;1.70;1.40;;;3.20;98.20;;;;;;5050503;28;20553;-74
2023/01/20 11:11:18;;;;;;;1.63;1.40;;;3.20;98.20;;;;;;5055237;28;20478;-75
2023/01/20 11:13:45;;;;;;;1.70;1.40;;;3.20;98.20;;;;;;5059878;28;20488;-74
2023/01/20 11:16:16;;;;;;;1.70;1.50;;;3.30;98.20;;;;;;5054006;28;21199;-76
2023/01/20 11:18:54;;;;;;;1.70;1.40;;;3.30;98.20;;;;;;5064083;28;20468;-73
2023/01/20 11:21:24;;;;;;;1.70;1.53;;;3.30;98.20;;;;;;5048242;28;20475;-73
2023/01/20 11:23:54;;;;;;;1.70;1.40;;;3.30;98.20;;;;;;5050483;28;20474;-75
2023/01/20 11:26:23;;;;;;;1.67;1.40;;;3.40;98.20;;;;;;5047922;28;21061;-75
2023/01/20 11:28:53;;;;;;;1.70;1.50;;;3.50;98.20;;;;;;5048670;28;20465;-76
2023/01/20 11:31:21;;;;;;;1.63;1.33;;;3.60;98.20;;;;;;5048727;28;20873;-75
2023/01/20 11:33:56;;;;;;;1.67;1.33;;;3.60;98.20;;;;;;5051715;28;20489;-76
2023/01/20 11:36:25;;;;;;;1.60;1.40;;;3.70;98.20;;;;;;5049664;28;20515;-74
2023/01/20 11:38:54;;;;;;;1.67;1.40;;;3.70;98.20;;;;;;5061055;28;20457;-74
2023/01/20 11:41:22;;;;;;;1.60;1.40;;;3.70;98.20;;;;;;5045748;28;20474;-74
2023/01/20 11:43:50;;;;;;;1.70;1.40;;;3.70;98.20;;;;;;5063934;28;20474;-74
2023/01/20 11:46:27;;;;;;;1.60;1.30;;;3.80;98.20;;;;;;5047965;28;20471;-75
2023/01/20 11:49:14;;;;;;;1.67;1.40;;;3.80;98.20;;;;;;5052572;28;20480;-75
2023/01/20 11:51:52;;;;;;;1.60;1.37;;;3.80;98.20;;;;;;5054299;28;20721;-75
2023/01/20 11:54:21;;;;;;;1.70;1.40;;;3.70;98.20;;;;;;5061139;28;20500;-74
2023/01/20 11:56:51;;;;;;;1.60;1.30;;;3.70;98.20;;;;;;5038370;28;20536;-74
2023/01/20 11:59:23;;;;;;;1.70;1.40;;;3.70;98.20;;;;;;5049898;28;20614;-74
2023/01/20 12:01:52;;;;;;;2.43;2.20;;;3.70;98.20;;;;;;5039710;28;20495;-74
2023/01/20 12:04:41;;;;;;;1.70;1.50;;;3.70;98.20;;;;;;5053561;28;20828;-77
2023/01/20 12:07:13;;;;;;;1.70;1.43;;;3.70;98.20;;;;;;5034115;28;20482;-75
2023/01/20 12:09:44;;;;;;;1.60;1.30;;;3.70;98.20;;;;;;5042964;28;20461;-75
2023/01/20 12:12:17;;;;;;;1.70;1.53;;;3.60;98.20;;;;;;5047418;28;20828;-73
2023/01/20 12:14:50;;;;;;;1.70;1.40;;;3.60;98.20;;;;;;5058494;28;20485;-75
2023/01/20 12:17:21;;;;;;;1.70;1.50;;;3.50;98.20;;;;;;5036411;28;20478;-74
2023/01/20 12:20:03;;;;;;;1.70;1.30;;;3.60;98.20;;;;;;5046885;28;20470;-74
2023/01/20 12:22:47;;;;;;;1.70;1.50;;;3.70;98.20;;;;;;5046400;28;20986;-75
2023/01/20 12:25:21;;;;;;;1.70;1.40;;;3.70;98.20;;;;;;5065448;28;20481;-75
2023/01/20 12:27:52;;;;;;;1.70;1.60;;;3.70;98.20;;;;;;5028796;28;20501;-76
2023/01/20 12:30:44;;;;;;;1.63;1.40;;;3.60;98.20;;;;;;5057139;28;20461;-75
2023/01/20 12:33:20;;;;;;;1.70;1.57;;;3.60;98.20;;;;;;5037637;28;21000;-75
2023/01/20 12:36:05;;;;;;;1.63;1.40;;;3.60;98.20;;;;;;5053839;28;20563;-75
2023/01/20 12:38:40;;;;;;;1.67;1.40;;;3.60;98.20;;;;;;5041527;28;20985;-75
2023/01/20 12:41:13;;;;;;;1.80;1.70;;;3.60;98.20;;;;;;5041270;28;20482;-74
2023/01/20 12:43:54;;;;;;;1.70;1.40;;;3.60;98.20;;;;;;5052374;28;20486;-75
2023/01/20 12:46:31;;;;;;;1.70;1.43;;;3.50;98.20;;;;;;5040521;28;21048;-74
2023/01/20 12:49:21;;;;;;;1.60;1.30;;;3.40;98.20;;;;;;5053256;28;20465;-75
2023/01/20 12:52:03;;;;;;;1.70;1.50;;;3.40;98.20;;;;;;5033203;28;20473;-73
2023/01/20 12:54:52;;;;;;;1.70;1.50;;;3.40;98.20;;;;;;5051151;28;20482;-74
2023/01/20 12:57:43;;;;;;;1.70;1.60;;;3.30;98.20;;;;;;5040394;28;20473;-75
2023/01/20 13:00:22;;;;;;;1.63;1.33;;;3.30;98.20;;;;;;5043796;28;20483;-75
2023/01/20 13:03:23;;;;;;;1.60;1.40;;;3.10;98.20;;;;;;5020580;28;21041;-74
2023/01/20 13:06:03;;;;;;;1.70;1.50;;;3.00;98.20;;;;;;5050915;28;20471;-75
2023/01/20 13:08:37;;;;;;;1.67;1.40;;;3.00;98.20;;;;;;5042975;28;20461;-76
2023/01/20 13:11:15;;;;;;;1.70;1.57;;;2.90;98.20;;;;;;5050777;28;21002;-76
2023/01/20 13:13:59;;;;;;;1.70;1.50;;;2.90;98.20;;;;;;5056306;28;20853;-75
2023/01/20 13:16:36;;;;;;;1.67;1.40;;;2.80;98.20;;;;;;5037427;28;20514;-76
2023/01/20 13:19:11;;;;;;;1.70;1.43;;;2.70;98.20;;;;;;5051843;28;20465;-75
2023/01/20 13:21:40;;;;;;;1.67;1.40;;;2.60;98.20;;;;;;5040922;28;21019;-75
2023/01/20 13:24:14;;;;;;;1.70;1.50;;;2.50;98.20;;;;;;5043869;28;20917;-76
2023/01/20 13:26:43;;;;;;;1.67;1.50;;;2.40;98.20;;;;;;5037815;28;20482;-75